sensor_id;sensor_type;location;lat;lon;timestamp;temperature;humidity
67750;DHT22;54550;48.838;8.828;2023-10-13T00:00:27;15.90;99.90
67750;DHT22;54550;48.838;8.828;2023-10-13T00:02:58;16.00;99.90
67750;DHT22;54550;48.838;8.828;2023-10-13T00:05:27;15.90;99.90
67750;DHT22;54550;48.838;8.828;2023-10-13T00:07:53;15.80;99.90
67750;DHT22;54550;48.838;8.828;2023-10-13T00:10:18;15.80;99.90
67750;DHT22;54550;48.838;8.828;2023-10-13T00:12:44;15.60;99.90
67750;DHT22;54550;48.838;8.828;2023-10-13T00:15:16;15.50;99.90
67750;DHT22;54550;48.838;8.828;2023-10-13T00:17:42;15.50;99.90
67750;DHT22;54550;48.838;8.828;2023-10-13T00:20:09;15.60;99.90
67750;DHT22;54550;48.838;8.828;2023-10-13T00:22:53;15.40;99.90
67750;DHT22;54550;48.838;8.828;2023-10-13T00:25:19;15.20;99.90
67750;DHT22;54550;48.838;8.828;2023-10-13T00:27:51;15.10;99.90
67750;DHT22;54550;48.838;8.828;2023-10-13T00:30:17;15.00;99.90
67750;DHT22;54550;48.838;8.828;2023-10-13T00:32:52;15.00;99.90
67750;DHT22;54550;48.838;8.828;2023-10-13T00:35:28;15.00;99.90
67750;DHT22;54550;48.838;8.828;2023-10-13T00:37:58;15.10;99.90
67750;DHT22;54550;48.838;8.828;2023-10-13T00:40:30;15.20;99.90
67750;DHT22;54550;48.838;8.828;2023-10-13T00:43:00;15.30;99.90
67750;DHT22;54550;48.838;8.828;2023-10-13T00:45:49;15.40;99.90
67750;DHT22;54550;48.838;8.828;2023-10-13T00:48:28;15.50;99.90
67750;DHT22;54550;48.838;8.828;2023-10-13T00:51:06;15.60;99.90
67750;DHT22;54550;48.838;8.828;2023-10-13T00:53:37;15.60;99.90
67750;DHT22;54550;48.838;8.828;2023-10-13T00:56:05;15.40;99.90
67750;DHT22;54550;48.838;8.828;2023-10-13T00:58:43;15.40;99.90
67750;DHT22;54550;48.838;8.828;2023-10-13T01:01:08;15.30;99.90
67750;DHT22;54550;48.838;8.828;2023-10-13T01:03:50;15.30;99.90
67750;DHT22;54550;48.838;8.828;2023-10-13T01:06:21;15.30;99.90
67750;DHT22;54550;48.838;8.828;2023-10-13T01:08:57;15.40;99.90
67750;DHT22;54550;48.838;8.828;2023-10-13T01:11:23;15.40;99.90
67750;DHT22;54550;48.838;8.828;2023-10-13T01:13:49;15.40;99.90
67750;DHT22;54550;48.838;8.828;2023-10-13T01:16:20;15.50;99.90
67750;DHT22;54550;48.838;8.828;2023-10-13T01:18:52;15.50;99.90
67750;DHT22;54550;48.838;8.828;2023-10-13T01:21:18;15.50;99.90
67750;DHT22;54550;48.838;8.828;2023-10-13T01:23:52;15.50;99.90
67750;DHT22;54550;48.838;8.828;2023-10-13T01:26:17;15.40;99.90
67750;DHT22;54550;48.838;8.828;2023-10-13T01:28:57;15.40;99.90
67750;DHT22;54550;48.838;8.828;2023-10-13T01:31:23;15.40;99.90
67750;DHT22;54550;48.838;8.828;2023-10-13T01:33:55;15.30;99.90
67750;DHT22;54550;48.838;8.828;2023-10-13T01:36:24;15.10;99.90
67750;DHT22;54550;48.838;8.828;2023-10-13T01:38:51;14.90;99.90
67750;DHT22;54550;48.838;8.828;2023-10-13T01:41:20;14.90;99.90
67750;DHT22;54550;48.838;8.828;2023-10-13T01:43:46;14.80;99.90
67750;DHT22;54550;48.838;8.828;2023-10-13T01:46:12;14.60;99.90
67750;DHT22;54550;48.838;8.828;2023-10-13T01:48:42;14.60;99.90
67750;DHT22;54550;48.838;8.828;2023-10-13T01:51:09;14.80;99.90
67750;DHT22;54550;48.838;8.828;2023-10-13T01:53:38;14.70;99.90
67750;DHT22;54550;48.838;8.828;2023-10-13T01:56:07;14.50;99.90
67750;DHT22;54550;48.838;8.828;2023-10-13T01:58:37;14.40;99.90
67750;DHT22;54550;48.838;8.828;2023-10-13T02:01:02;14.40;99.90
67750;DHT22;54550;48.838;8.828;2023-10-13T02:03:33;14.30;99.90
67750;DHT22;54550;48.838;8.828;2023-10-13T02:05:58;14.40;99.90
67750;DHT22;54550;48.838;8.828;2023-10-13T02:08:30;14.40;99.90
67750;DHT22;54550;48.838;8.828;2023-10-13T02:10:57;14.50;99.90
67750;DHT22;54550;48.838;8.828;2023-10-13T02:13:26;14.60;99.90
67750;DHT22;54550;48.838;8.828;2023-10-13T02:15:56;14.70;99.90
67750;DHT22;54550;48.838;8.828;2023-10-13T02:18:23;14.60;99.90
67750;DHT22;54550;48.838;8.828;2023-10-13T02:20:56;14.50;99.90
67750;DHT22;54550;48.838;8.828;2023-10-13T02:23:25;14.30;99.90
67750;DHT22;54550;48.838;8.828;2023-10-13T02:25:54;14.30;99.90
67750;DHT22;54550;48.838;8.828;2023-10-13T02:28:28;14.20;99.90
67750;DHT22;54550;48.838;8.828;2023-10-13T02:31:01;14.10;99.90
67750;DHT22;54550;48.838;8.828;2023-10-13T02:33:29;14.10;99.90
67750;DHT22;54550;48.838;8.828;2023-10-13T02:35:59;14.10;99.90
67750;DHT22;54550;48.838;8.828;2023-10-13T02:38:29;14.10;99.90
67750;DHT22;54550;48.838;8.828;2023-10-13T02:41:18;14.10;99.90
67750;DHT22;54550;48.838;8.828;2023-10-13T02:43:55;14.10;99.90
67750;DHT22;54550;48.838;8.828;2023-10-13T02:46:21;14.00;99.90
67750;DHT22;54550;48.838;8.828;2023-10-13T02:48:48;14.00;99.90
67750;DHT22;54550;48.838;8.828;2023-10-13T02:51:19;14.00;99.90
67750;DHT22;54550;48.838;8.828;2023-10-13T02:53:56;14.10;99.90
67750;DHT22;54550;48.838;8.828;2023-10-13T02:56:29;14.10;99.90
67750;DHT22;54550;48.838;8.828;2023-10-13T02:58:54;14.10;99.90
67750;DHT22;54550;48.838;8.828;2023-10-13T03:01:22;14.10;99.90
67750;DHT22;54550;48.838;8.828;2023-10-13T03:03:53;14.10;99.90
67750;DHT22;54550;48.838;8.828;2023-10-13T03:06:24;14.10;99.90
67750;DHT22;54550;48.838;8.828;2023-10-13T03:09:07;14.00;99.90
67750;DHT22;54550;48.838;8.828;2023-10-13T03:11:48;14.00;99.90
67750;DHT22;54550;48.838;8.828;2023-10-13T03:14:21;13.90;99.90
67750;DHT22;54550;48.838;8.828;2023-10-13T03:16:57;13.90;99.90
67750;DHT22;54550;48.838;8.828;2023-10-13T03:19:34;13.90;99.90
67750;DHT22;54550;48.838;8.828;2023-10-13T03:22:05;13.80;99.90
67750;DHT22;54550;48.838;8.828;2023-10-13T03:24:35;13.70;99.90
67750;DHT22;54550;48.838;8.828;2023-10-13T03:27:04;13.60;99.90
67750;DHT22;54550;48.838;8.828;2023-10-13T03:29:50;13.50;99.90
67750;DHT22;54550;48.838;8.828;2023-10-13T03:32:22;13.40;99.90
67750;DHT22;54550;48.838;8.828;2023-10-13T03:34:51;13.40;99.90
67750;DHT22;54550;48.838;8.828;2023-10-13T03:37:17;13.30;99.90
67750;DHT22;54550;48.838;8.828;2023-10-13T03:39:44;13.30;99.90
67750;DHT22;54550;48.838;8.828;2023-10-13T03:42:12;13.30;99.90
67750;DHT22;54550;48.838;8.828;2023-10-13T03:44:49;13.30;99.90
67750;DHT22;54550;48.838;8.828;2023-10-13T03:47:15;13.20;99.90
67750;DHT22;54550;48.838;8.828;2023-10-13T03:49:45;13.30;99.90
67750;DHT22;54550;48.838;8.828;2023-10-13T03:52:11;13.20;99.90
67750;DHT22;54550;48.838;8.828;2023-10-13T03:54:39;13.20;99.90
67750;DHT22;54550;48.838;8.828;2023-10-13T03:57:07;13.10;99.90
67750;DHT22;54550;48.838;8.828;2023-10-13T03:59:36;13.10;99.90
67750;DHT22;54550;48.838;8.828;2023-10-13T04:02:03;13.00;99.90
67750;DHT22;54550;48.838;8.828;2023-10-13T04:04:37;13.10;99.90
67750;DHT22;54550;48.838;8.828;2023-10-13T04:07:15;13.10;99.90
67750;DHT22;54550;48.838;8.828;2023-10-13T04:09:59;13.20;99.90
67750;DHT22;54550;48.838;8.828;2023-10-13T04:12:43;13.20;99.90
67750;DHT22;54550;48.838;8.828;2023-10-13T04:15:27;13.10;99.90
67750;DHT22;54550;48.838;8.828;2023-10-13T04:18:02;13.30;99.90
67750;DHT22;54550;48.838;8.828;2023-10-13T04:20:40;13.50;99.90
67750;DHT22;54550;48.838;8.828;2023-10-13T04:23:11;13.50;99.90
67750;DHT22;54550;48.838;8.828;2023-10-13T04:25:44;13.60;99.90
67750;DHT22;54550;48.838;8.828;2023-10-13T04:28:11;13.70;99.90
67750;DHT22;54550;48.838;8.828;2023-10-13T04:30:41;13.70;99.90
67750;DHT22;54550;48.838;8.828;2023-10-13T04:33:29;13.70;99.90
67750;DHT22;54550;48.838;8.828;2023-10-13T04:36:04;13.70;99.90
67750;DHT22;54550;48.838;8.828;2023-10-13T04:38:40;13.80;99.90
67750;DHT22;54550;48.838;8.828;2023-10-13T04:41:25;14.00;99.90
67750;DHT22;54550;48.838;8.828;2023-10-13T04:43:58;14.20;99.90
67750;DHT22;54550;48.838;8.828;2023-10-13T04:46:30;14.20;99.90
67750;DHT22;54550;48.838;8.828;2023-10-13T04:49:11;14.20;99.90
67750;DHT22;54550;48.838;8.828;2023-10-13T04:52:01;14.20;99.90
67750;DHT22;54550;48.838;8.828;2023-10-13T04:54:37;14.20;99.90
67750;DHT22;54550;48.838;8.828;2023-10-13T04:57:25;14.40;99.90
67750;DHT22;54550;48.838;8.828;2023-10-13T05:00:09;14.40;99.90
67750;DHT22;54550;48.838;8.828;2023-10-13T05:02:39;14.50;99.90
67750;DHT22;54550;48.838;8.828;2023-10-13T05:05:10;14.60;99.90
67750;DHT22;54550;48.838;8.828;2023-10-13T05:07:39;14.70;99.90
67750;DHT22;54550;48.838;8.828;2023-10-13T05:10:24;14.70;99.90
67750;DHT22;54550;48.838;8.828;2023-10-13T05:13:08;14.70;99.90
67750;DHT22;54550;48.838;8.828;2023-10-13T05:15:52;14.70;99.90
67750;DHT22;54550;48.838;8.828;2023-10-13T05:18:37;14.80;99.90
67750;DHT22;54550;48.838;8.828;2023-10-13T05:21:22;14.90;99.90
67750;DHT22;54550;48.838;8.828;2023-10-13T05:24:06;15.10;99.90
67750;DHT22;54550;48.838;8.828;2023-10-13T05:26:51;15.10;99.90
67750;DHT22;54550;48.838;8.828;2023-10-13T05:29:42;15.10;99.90
67750;DHT22;54550;48.838;8.828;2023-10-13T05:32:26;15.10;99.90
67750;DHT22;54550;48.838;8.828;2023-10-13T05:35:14;15.00;99.90
67750;DHT22;54550;48.838;8.828;2023-10-13T05:37:59;15.00;99.90
67750;DHT22;54550;48.838;8.828;2023-10-13T05:41:00;14.90;99.90
67750;DHT22;54550;48.838;8.828;2023-10-13T05:43:45;14.90;99.90
67750;DHT22;54550;48.838;8.828;2023-10-13T05:46:29;14.90;99.90
67750;DHT22;54550;48.838;8.828;2023-10-13T05:49:15;14.90;99.90
67750;DHT22;54550;48.838;8.828;2023-10-13T05:51:40;15.00;99.90
67750;DHT22;54550;48.838;8.828;2023-10-13T05:54:12;15.10;99.90
67750;DHT22;54550;48.838;8.828;2023-10-13T05:56:42;15.20;99.90
67750;DHT22;54550;48.838;8.828;2023-10-13T05:59:26;15.40;99.90
67750;DHT22;54550;48.838;8.828;2023-10-13T06:02:11;15.60;99.90
67750;DHT22;54550;48.838;8.828;2023-10-13T06:04:56;15.70;99.90
67750;DHT22;54550;48.838;8.828;2023-10-13T06:07:40;15.70;99.90
67750;DHT22;54550;48.838;8.828;2023-10-13T06:10:24;15.80;99.90
67750;DHT22;54550;48.838;8.828;2023-10-13T06:13:08;15.80;99.90
67750;DHT22;54550;48.838;8.828;2023-10-13T06:15:52;15.80;99.90
67750;DHT22;54550;48.838;8.828;2023-10-13T06:18:36;15.80;99.90
67750;DHT22;54550;48.838;8.828;2023-10-13T06:21:21;15.80;99.90
67750;DHT22;54550;48.838;8.828;2023-10-13T06:24:06;15.80;99.90
67750;DHT22;54550;48.838;8.828;2023-10-13T06:26:51;15.80;99.90
67750;DHT22;54550;48.838;8.828;2023-10-13T06:29:35;15.80;99.90
67750;DHT22;54550;48.838;8.828;2023-10-13T06:32:00;15.90;99.90
67750;DHT22;54550;48.838;8.828;2023-10-13T06:34:29;15.80;99.90
67750;DHT22;54550;48.838;8.828;2023-10-13T06:37:13;15.80;99.90
67750;DHT22;54550;48.838;8.828;2023-10-13T06:39:54;15.80;99.90
67750;DHT22;54550;48.838;8.828;2023-10-13T06:42:23;15.90;99.90
67750;DHT22;54550;48.838;8.828;2023-10-13T06:44:55;15.90;99.90
67750;DHT22;54550;48.838;8.828;2023-10-13T06:47:24;15.90;99.90
67750;DHT22;54550;48.838;8.828;2023-10-13T06:49:53;15.90;99.90
67750;DHT22;54550;48.838;8.828;2023-10-13T06:52:20;15.90;99.90
67750;DHT22;54550;48.838;8.828;2023-10-13T06:54:50;16.00;99.90
67750;DHT22;54550;48.838;8.828;2023-10-13T06:57:16;16.10;99.90
67750;DHT22;54550;48.838;8.828;2023-10-13T06:59:46;16.10;99.90
67750;DHT22;54550;48.838;8.828;2023-10-13T07:02:12;16.10;99.90
67750;DHT22;54550;48.838;8.828;2023-10-13T07:04:49;16.20;99.90
67750;DHT22;54550;48.838;8.828;2023-10-13T07:07:23;16.20;99.90
67750;DHT22;54550;48.838;8.828;2023-10-13T07:09:49;16.30;99.90
67750;DHT22;54550;48.838;8.828;2023-10-13T07:12:21;16.30;99.90
67750;DHT22;54550;48.838;8.828;2023-10-13T07:14:52;16.50;99.90
67750;DHT22;54550;48.838;8.828;2023-10-13T07:17:20;16.50;99.90
67750;DHT22;54550;48.838;8.828;2023-10-13T07:19:57;16.60;99.90
67750;DHT22;54550;48.838;8.828;2023-10-13T07:22:40;16.70;99.90
67750;DHT22;54550;48.838;8.828;2023-10-13T07:25:06;16.90;99.90
67750;DHT22;54550;48.838;8.828;2023-10-13T07:27:32;17.00;99.90
67750;DHT22;54550;48.838;8.828;2023-10-13T07:30:01;17.00;99.90
67750;DHT22;54550;48.838;8.828;2023-10-13T07:32:42;17.20;99.90
67750;DHT22;54550;48.838;8.828;2023-10-13T07:35:12;17.30;99.90
67750;DHT22;54550;48.838;8.828;2023-10-13T07:37:37;17.40;99.90
67750;DHT22;54550;48.838;8.828;2023-10-13T07:40:09;17.50;99.90
67750;DHT22;54550;48.838;8.828;2023-10-13T07:42:48;17.70;99.90
67750;DHT22;54550;48.838;8.828;2023-10-13T07:45:14;17.90;99.90
67750;DHT22;54550;48.838;8.828;2023-10-13T07:47:43;18.00;99.90
67750;DHT22;54550;48.838;8.828;2023-10-13T07:50:08;18.30;99.30
67750;DHT22;54550;48.838;8.828;2023-10-13T07:52:35;18.60;99.20
67750;DHT22;54550;48.838;8.828;2023-10-13T07:55:06;19.40;98.00
67750;DHT22;54550;48.838;8.828;2023-10-13T07:57:42;20.30;97.20
67750;DHT22;54550;48.838;8.828;2023-10-13T08:00:21;21.30;96.50
67750;DHT22;54550;48.838;8.828;2023-10-13T08:03:05;21.70;95.00
67750;DHT22;54550;48.838;8.828;2023-10-13T08:05:37;22.20;94.70
67750;DHT22;54550;48.838;8.828;2023-10-13T08:08:22;22.60;94.40
67750;DHT22;54550;48.838;8.828;2023-10-13T08:10:51;23.00;93.30
67750;DHT22;54550;48.838;8.828;2023-10-13T08:13:21;23.50;93.20
67750;DHT22;54550;48.838;8.828;2023-10-13T08:15:47;24.00;92.50
67750;DHT22;54550;48.838;8.828;2023-10-13T08:18:14;24.10;91.90
67750;DHT22;54550;48.838;8.828;2023-10-13T08:20:57;24.80;91.80
67750;DHT22;54550;48.838;8.828;2023-10-13T08:23:29;24.40;91.40
67750;DHT22;54550;48.838;8.828;2023-10-13T08:26:13;24.50;91.60
67750;DHT22;54550;48.838;8.828;2023-10-13T08:28:58;24.40;91.10
67750;DHT22;54550;48.838;8.828;2023-10-13T08:31:51;24.30;91.20
67750;DHT22;54550;48.838;8.828;2023-10-13T08:34:31;24.30;91.00
67750;DHT22;54550;48.838;8.828;2023-10-13T08:37:07;24.60;91.50
67750;DHT22;54550;48.838;8.828;2023-10-13T08:39:52;24.30;90.50
67750;DHT22;54550;48.838;8.828;2023-10-13T08:42:37;24.10;91.30
67750;DHT22;54550;48.838;8.828;2023-10-13T08:45:11;23.80;90.40
67750;DHT22;54550;48.838;8.828;2023-10-13T08:47:49;23.90;90.80
67750;DHT22;54550;48.838;8.828;2023-10-13T08:50:51;24.00;90.80
67750;DHT22;54550;48.838;8.828;2023-10-13T08:53:27;24.20;91.20
67750;DHT22;54550;48.838;8.828;2023-10-13T08:56:03;24.80;90.20
67750;DHT22;54550;48.838;8.828;2023-10-13T08:58:48;25.30;89.00
67750;DHT22;54550;48.838;8.828;2023-10-13T09:01:21;26.00;88.10
67750;DHT22;54550;48.838;8.828;2023-10-13T09:04:01;26.30;85.70
67750;DHT22;54550;48.838;8.828;2023-10-13T09:09:32;26.20;83.80
67750;DHT22;54550;48.838;8.828;2023-10-13T09:12:20;26.20;83.40
67750;DHT22;54550;48.838;8.828;2023-10-13T09:14:55;26.40;82.10
67750;DHT22;54550;48.838;8.828;2023-10-13T09:17:25;26.40;82.60
67750;DHT22;54550;48.838;8.828;2023-10-13T09:20:04;26.70;82.10
67750;DHT22;54550;48.838;8.828;2023-10-13T09:22:54;27.10;80.70
67750;DHT22;54550;48.838;8.828;2023-10-13T09:25:39;26.80;80.70
67750;DHT22;54550;48.838;8.828;2023-10-13T09:28:23;26.50;80.60
67750;DHT22;54550;48.838;8.828;2023-10-13T09:30:54;26.30;80.90
67750;DHT22;54550;48.838;8.828;2023-10-13T09:33:25;26.50;81.90
67750;DHT22;54550;48.838;8.828;2023-10-13T09:35:58;26.70;82.40
67750;DHT22;54550;48.838;8.828;2023-10-13T09:38:28;26.30;82.90
67750;DHT22;54550;48.838;8.828;2023-10-13T09:40:58;26.40;83.70
67750;DHT22;54550;48.838;8.828;2023-10-13T09:43:27;26.60;83.50
67750;DHT22;54550;48.838;8.828;2023-10-13T09:45:59;26.80;83.00
67750;DHT22;54550;48.838;8.828;2023-10-13T09:48:34;26.90;81.20
67750;DHT22;54550;48.838;8.828;2023-10-13T09:51:04;26.50;81.70
67750;DHT22;54550;48.838;8.828;2023-10-13T09:53:36;26.70;82.80
67750;DHT22;54550;48.838;8.828;2023-10-13T09:56:25;27.20;82.90
67750;DHT22;54550;48.838;8.828;2023-10-13T09:59:14;27.10;81.20
67750;DHT22;54550;48.838;8.828;2023-10-13T10:01:43;27.20;78.50
67750;DHT22;54550;48.838;8.828;2023-10-13T10:04:24;27.50;77.50
67750;DHT22;54550;48.838;8.828;2023-10-13T10:06:53;27.50;77.50
67750;DHT22;54550;48.838;8.828;2023-10-13T10:09:19;26.90;80.00
67750;DHT22;54550;48.838;8.828;2023-10-13T10:15:06;25.60;82.50
67750;DHT22;54550;48.838;8.828;2023-10-13T10:17:43;25.70;82.50
67750;DHT22;54550;48.838;8.828;2023-10-13T10:20:10;26.30;81.40
67750;DHT22;54550;48.838;8.828;2023-10-13T10:22:58;26.90;79.60
67750;DHT22;54550;48.838;8.828;2023-10-13T10:25:32;27.40;78.70
67750;DHT22;54550;48.838;8.828;2023-10-13T10:28:02;27.50;76.70
67750;DHT22;54550;48.838;8.828;2023-10-13T10:30:38;27.60;76.40
67750;DHT22;54550;48.838;8.828;2023-10-13T10:33:09;27.80;75.10
67750;DHT22;54550;48.838;8.828;2023-10-13T10:35:43;27.70;74.50
67750;DHT22;54550;48.838;8.828;2023-10-13T10:40:54;27.70;72.80
67750;DHT22;54550;48.838;8.828;2023-10-13T10:43:43;28.00;71.30
67750;DHT22;54550;48.838;8.828;2023-10-13T10:46:25;28.20;69.70
67750;DHT22;54550;48.838;8.828;2023-10-13T10:48:50;28.20;69.60
67750;DHT22;54550;48.838;8.828;2023-10-13T10:51:22;28.40;68.60
67750;DHT22;54550;48.838;8.828;2023-10-13T10:53:52;28.40;69.20
67750;DHT22;54550;48.838;8.828;2023-10-13T10:56:22;28.50;68.00
67750;DHT22;54550;48.838;8.828;2023-10-13T10:58:56;28.80;68.90
67750;DHT22;54550;48.838;8.828;2023-10-13T11:01:26;29.10;69.00
67750;DHT22;54550;48.838;8.828;2023-10-13T11:04:03;28.80;67.60
67750;DHT22;54550;48.838;8.828;2023-10-13T11:06:46;28.80;67.80
67750;DHT22;54550;48.838;8.828;2023-10-13T11:09:12;28.90;66.80
67750;DHT22;54550;48.838;8.828;2023-10-13T11:11:47;28.90;66.80
67750;DHT22;54550;48.838;8.828;2023-10-13T11:14:27;28.90;66.50
67750;DHT22;54550;48.838;8.828;2023-10-13T11:16:57;28.50;66.10
67750;DHT22;54550;48.838;8.828;2023-10-13T11:19:40;28.30;66.70
67750;DHT22;54550;48.838;8.828;2023-10-13T11:22:13;28.40;67.90
67750;DHT22;54550;48.838;8.828;2023-10-13T11:24:55;28.30;66.70
67750;DHT22;54550;48.838;8.828;2023-10-13T11:27:31;28.10;67.20
67750;DHT22;54550;48.838;8.828;2023-10-13T11:30:15;28.40;66.70
67750;DHT22;54550;48.838;8.828;2023-10-13T11:33:07;28.40;65.50
67750;DHT22;54550;48.838;8.828;2023-10-13T11:35:36;28.60;64.50
67750;DHT22;54550;48.838;8.828;2023-10-13T11:38:15;28.90;63.90
67750;DHT22;54550;48.838;8.828;2023-10-13T11:40:50;29.10;62.30
67750;DHT22;54550;48.838;8.828;2023-10-13T11:43:39;29.20;62.50
67750;DHT22;54550;48.838;8.828;2023-10-13T11:46:14;29.30;61.20
67750;DHT22;54550;48.838;8.828;2023-10-13T11:49:03;29.00;61.50
67750;DHT22;54550;48.838;8.828;2023-10-13T11:51:41;29.40;60.20
67750;DHT22;54550;48.838;8.828;2023-10-13T11:54:11;29.30;59.90
67750;DHT22;54550;48.838;8.828;2023-10-13T11:56:37;29.10;59.60
67750;DHT22;54550;48.838;8.828;2023-10-13T11:59:04;28.90;59.70
67750;DHT22;54550;48.838;8.828;2023-10-13T12:01:31;29.10;59.80
67750;DHT22;54550;48.838;8.828;2023-10-13T12:04:16;29.60;59.80
67750;DHT22;54550;48.838;8.828;2023-10-13T12:07:00;29.90;60.30
67750;DHT22;54550;48.838;8.828;2023-10-13T12:09:43;30.10;58.70
67750;DHT22;54550;48.838;8.828;2023-10-13T12:12:26;30.40;60.00
67750;DHT22;54550;48.838;8.828;2023-10-13T12:14:53;30.70;57.80
67750;DHT22;54550;48.838;8.828;2023-10-13T12:17:30;30.50;58.50
67750;DHT22;54550;48.838;8.828;2023-10-13T12:20:06;30.40;57.60
67750;DHT22;54550;48.838;8.828;2023-10-13T12:22:36;30.70;57.50
67750;DHT22;54550;48.838;8.828;2023-10-13T12:25:08;30.80;57.40
67750;DHT22;54550;48.838;8.828;2023-10-13T12:27:53;31.00;57.00
67750;DHT22;54550;48.838;8.828;2023-10-13T12:30:23;30.80;56.20
67750;DHT22;54550;48.838;8.828;2023-10-13T12:33:02;30.50;56.80
67750;DHT22;54550;48.838;8.828;2023-10-13T12:35:40;30.10;57.70
67750;DHT22;54550;48.838;8.828;2023-10-13T12:38:24;30.30;58.10
67750;DHT22;54550;48.838;8.828;2023-10-13T12:41:06;30.80;56.80
67750;DHT22;54550;48.838;8.828;2023-10-13T12:43:50;31.00;56.80
67750;DHT22;54550;48.838;8.828;2023-10-13T12:46:34;30.90;56.30
67750;DHT22;54550;48.838;8.828;2023-10-13T12:49:18;31.60;56.20
67750;DHT22;54550;48.838;8.828;2023-10-13T12:52:02;31.50;54.90
67750;DHT22;54550;48.838;8.828;2023-10-13T12:54:27;31.30;56.00
67750;DHT22;54550;48.838;8.828;2023-10-13T12:57:01;31.70;55.30
67750;DHT22;54550;48.838;8.828;2023-10-13T12:59:26;31.60;55.60
67750;DHT22;54550;48.838;8.828;2023-10-13T13:01:52;31.50;54.60
67750;DHT22;54550;48.838;8.828;2023-10-13T13:04:18;31.40;54.90
67750;DHT22;54550;48.838;8.828;2023-10-13T13:06:54;30.90;55.30
67750;DHT22;54550;48.838;8.828;2023-10-13T13:09:21;30.90;55.00
67750;DHT22;54550;48.838;8.828;2023-10-13T13:11:53;30.60;54.50
67750;DHT22;54550;48.838;8.828;2023-10-13T13:14:23;30.40;55.20
67750;DHT22;54550;48.838;8.828;2023-10-13T13:16:54;30.90;55.20
67750;DHT22;54550;48.838;8.828;2023-10-13T13:19:20;30.80;54.40
67750;DHT22;54550;48.838;8.828;2023-10-13T13:21:51;30.90;54.00
67750;DHT22;54550;48.838;8.828;2023-10-13T13:24:16;30.80;54.10
67750;DHT22;54550;48.838;8.828;2023-10-13T13:26:42;31.30;55.30
67750;DHT22;54550;48.838;8.828;2023-10-13T13:29:08;31.50;53.70
67750;DHT22;54550;48.838;8.828;2023-10-13T13:31:35;31.50;52.90
67750;DHT22;54550;48.838;8.828;2023-10-13T13:34:07;31.30;54.40
67750;DHT22;54550;48.838;8.828;2023-10-13T13:36:35;31.10;53.60
67750;DHT22;54550;48.838;8.828;2023-10-13T13:39:00;30.80;53.20
67750;DHT22;54550;48.838;8.828;2023-10-13T13:41:27;30.50;55.00
67750;DHT22;54550;48.838;8.828;2023-10-13T13:43:53;30.60;54.40
67750;DHT22;54550;48.838;8.828;2023-10-13T13:46:23;31.00;54.60
67750;DHT22;54550;48.838;8.828;2023-10-13T13:48:58;30.90;54.90
67750;DHT22;54550;48.838;8.828;2023-10-13T13:51:28;30.50;53.70
67750;DHT22;54550;48.838;8.828;2023-10-13T13:53:55;30.30;54.20
67750;DHT22;54550;48.838;8.828;2023-10-13T13:56:21;29.90;54.40
67750;DHT22;54550;48.838;8.828;2023-10-13T13:58:51;29.80;54.50
67750;DHT22;54550;48.838;8.828;2023-10-13T14:01:18;30.10;55.10
67750;DHT22;54550;48.838;8.828;2023-10-13T14:03:46;30.00;53.80
67750;DHT22;54550;48.838;8.828;2023-10-13T14:06:13;30.00;54.80
67750;DHT22;54550;48.838;8.828;2023-10-13T14:08:46;30.30;54.60
67750;DHT22;54550;48.838;8.828;2023-10-13T14:11:15;30.20;54.90
67750;DHT22;54550;48.838;8.828;2023-10-13T14:14:14;30.10;55.50
67750;DHT22;54550;48.838;8.828;2023-10-13T14:16:54;30.30;54.50
67750;DHT22;54550;48.838;8.828;2023-10-13T14:19:27;30.20;55.60
67750;DHT22;54550;48.838;8.828;2023-10-13T14:21:54;30.10;54.80
67750;DHT22;54550;48.838;8.828;2023-10-13T14:24:20;29.90;54.50
67750;DHT22;54550;48.838;8.828;2023-10-13T14:27:00;29.80;55.50
67750;DHT22;54550;48.838;8.828;2023-10-13T14:29:33;29.90;55.00
67750;DHT22;54550;48.838;8.828;2023-10-13T14:31:59;29.40;54.90
67750;DHT22;54550;48.838;8.828;2023-10-13T14:34:25;29.30;56.00
67750;DHT22;54550;48.838;8.828;2023-10-13T14:36:52;29.50;56.10
67750;DHT22;54550;48.838;8.828;2023-10-13T14:39:20;29.90;56.30
67750;DHT22;54550;48.838;8.828;2023-10-13T14:41:46;30.10;55.20
67750;DHT22;54550;48.838;8.828;2023-10-13T14:44:16;29.90;55.30
67750;DHT22;54550;48.838;8.828;2023-10-13T14:46:41;30.10;56.20
67750;DHT22;54550;48.838;8.828;2023-10-13T14:49:08;30.10;54.80
67750;DHT22;54550;48.838;8.828;2023-10-13T14:51:33;29.70;53.80
67750;DHT22;54550;48.838;8.828;2023-10-13T14:54:04;29.60;53.60
67750;DHT22;54550;48.838;8.828;2023-10-13T14:56:30;29.70;53.80
67750;DHT22;54550;48.838;8.828;2023-10-13T14:58:56;29.80;53.40
67750;DHT22;54550;48.838;8.828;2023-10-13T15:01:23;30.00;53.50
67750;DHT22;54550;48.838;8.828;2023-10-13T15:03:52;30.10;54.00
67750;DHT22;54550;48.838;8.828;2023-10-13T15:06:25;30.00;53.30
67750;DHT22;54550;48.838;8.828;2023-10-13T15:08:54;30.10;54.20
67750;DHT22;54550;48.838;8.828;2023-10-13T15:11:21;29.80;55.10
67750;DHT22;54550;48.838;8.828;2023-10-13T15:13:47;29.80;56.20
67750;DHT22;54550;48.838;8.828;2023-10-13T15:16:20;29.80;56.40
67750;DHT22;54550;48.838;8.828;2023-10-13T15:18:47;29.30;56.40
67750;DHT22;54550;48.838;8.828;2023-10-13T15:21:19;29.30;56.40
67750;DHT22;54550;48.838;8.828;2023-10-13T15:23:48;29.30;57.00
67750;DHT22;54550;48.838;8.828;2023-10-13T15:26:14;28.90;57.20
67750;DHT22;54550;48.838;8.828;2023-10-13T15:28:41;28.50;57.40
67750;DHT22;54550;48.838;8.828;2023-10-13T15:31:19;28.30;57.90
67750;DHT22;54550;48.838;8.828;2023-10-13T15:34:12;28.20;58.80
67750;DHT22;54550;48.838;8.828;2023-10-13T15:36:43;27.70;60.00
67750;DHT22;54550;48.838;8.828;2023-10-13T15:39:10;27.60;59.60
67750;DHT22;54550;48.838;8.828;2023-10-13T15:41:36;27.50;59.40
67750;DHT22;54550;48.838;8.828;2023-10-13T15:44:05;27.30;59.30
67750;DHT22;54550;48.838;8.828;2023-10-13T15:46:35;27.20;59.10
67750;DHT22;54550;48.838;8.828;2023-10-13T15:49:01;26.90;58.80
67750;DHT22;54550;48.838;8.828;2023-10-13T15:51:28;26.90;58.40
67750;DHT22;54550;48.838;8.828;2023-10-13T15:53:55;26.70;58.20
67750;DHT22;54550;48.838;8.828;2023-10-13T15:56:21;26.50;58.60
67750;DHT22;54550;48.838;8.828;2023-10-13T15:58:47;26.10;58.70
67750;DHT22;54550;48.838;8.828;2023-10-13T16:01:14;25.70;59.10
67750;DHT22;54550;48.838;8.828;2023-10-13T16:03:43;25.50;59.10
67750;DHT22;54550;48.838;8.828;2023-10-13T16:06:10;25.50;59.00
67750;DHT22;54550;48.838;8.828;2023-10-13T16:08:39;25.50;59.40
67750;DHT22;54550;48.838;8.828;2023-10-13T16:11:12;25.20;59.20
67750;DHT22;54550;48.838;8.828;2023-10-13T16:13:44;24.80;60.20
67750;DHT22;54550;48.838;8.828;2023-10-13T16:16:17;24.50;60.70
67750;DHT22;54550;48.838;8.828;2023-10-13T16:18:44;24.40;59.40